Search for airport 
image banner adimage banner adimage banner ad
image banner ad

CN33 - Airport Imperial Bldg Helistop

Located in El Segundo, United States

ICAO - CN33, IATA -

Data provided by Airmate  

General information

Coordinates: N33°55'49" W118°23'49"
Elevation is 238 feet MSL.
Magnetic variation is 14° East
View others Airports in California

Operational data

Special qualification required
Current time UTC:
Current local time:
Weather at : KLAX - Los Angeles Intl ( 2 km )
METAR: KLAX 141253Z COR 00000KT 10SM FEW015 FEW200 SCT250 17/14 A2990 RMK AO2 SLP123 FU FEW015 T01670139
TAF: KLAX 141128Z 1412/1518 VRB03KT P6SM SKC FM141700 26008KT P6SM SKC FM141900 26015KT P6SM SKC FM150400 25008KT P6SM SKC FM150900 VRB03KT P6SM SKC
View NOTAMs / SUP AIP / TFR affecting this airport [VIEW]
Communications frequencies: [VIEW]

Runways:

Airport contact information

Address: El Segundo United States

Satellite view of CN33